KCAO

Clayton Municipal Arpk Airport

Clayton, New Mexico, USA
METAR KCAO 220955Z AUTO 22009KT 10SM CLR 13/11 A3004 RMK AO2 SLP115 T01280111
Observed Flight Rules
May-22 @ 09:55 UTC (14 minutes ago) Visual Flight Rules
Wind Visibility Clouds
220° at 9 knots 10 miles
  • Clear skies
Temperatures Readings
Current 13°C / 55°F
Dewpoint 11°C / 52°F
Humidity 88%
Altimeter 30.04" Hg
Pressure 1011.5 hPa
Elevation 1514
METAR KCAO 220955Z AUTO 22009KT 10SM CLR 13/11 A3004 RMK AO2 SLP115 T01280111
Observed Flight Rules
May-22 @ 09:55 UTC
(14 minutes ago)
VFR
Wind Visibility
220° at 9 knots 10 miles
Clouds
  • Clear skies
Temperature Dewpoint
13°C / 55°F 11°C / 52°F
Humidity Altimeter Pressure
88% 30.04" Hg 1011.5 hPa